Time;durP1;ratioP1;P1;durP2;ratioP2;P2;SDS_P1;SDS_P2;PMS_P1;PMS_P2;Temp;Humidity;BMP_temperature;BMP_pressure;BME280_temperature;BME280_humidity;BME280_pressure;Samples;Min_cycle;Max_cycle;Signal;HPM_P1;HPM_P2
2023/01/07 00:35:03;;;;;;;;;;;;;;;;;;6328402;22;19922;-87
2023/01/07 00:40:22;;;;;;;;;;;;;;;;;;6262342;22;20601;-88
2023/01/07 00:42:54;;;;;;;;;;;;;;;;;;6235362;22;19919;-88
2023/01/07 00:45:22;;;;;;;;;;;;;;;;;;6232423;22;19923;-88
2023/01/07 00:47:52;;;;;;;;;;;;;;;;;;6231933;22;20407;-87
2023/01/07 00:50:34;;;;;;;;;;;;;;;;;;6284487;22;20018;-87
2023/01/07 00:53:01;;;;;;;;;;;;;;;;;;6228226;22;19937;-87
2023/01/07 00:55:43;;;;;;;;;;;;;;;;;;6234685;22;19941;-88
2023/01/07 00:58:11;;;;;;;;;;;;;;;;;;6258489;22;19923;-88
2023/01/07 01:00:38;;;;;;;;;;;;;;;;;;6260356;22;19918;-87
2023/01/07 01:03:09;;;;;;;;;;;;;;;;;;6255973;22;19919;-88
2023/01/07 01:05:36;;;;;;;;;;;;;;;;;;6237181;22;19930;-88
2023/01/07 01:08:09;;;;;;;;;;;;;;;;;;6260260;22;19925;-87
2023/01/07 01:10:37;;;;;;;;;;;;;;;;;;6290422;22;19918;-87
2023/01/07 01:13:03;;;;;;;;;;;;;;;;;;6257220;22;19966;-88
2023/01/07 01:15:30;;;;;;;;;;;;;;;;;;6235783;22;19969;-87
2023/01/07 01:17:58;;;;;;;;;;;;;;;;;;6235819;22;20298;-87
2023/01/07 01:20:38;;;;;;;;;;;;;;;;;;6261978;22;19925;-87
2023/01/07 01:23:05;;;;;;;;;;;;;;;;;;6232206;22;20410;-87
2023/01/07 01:25:32;;;;;;;;;;;;;;;;;;6238558;22;19926;-88
2023/01/07 01:27:59;;;;;;;;;;;;;;;;;;6259144;22;20485;-87
2023/01/07 01:30:29;;;;;;;;;;;;;;;;;;6239129;22;19918;-87
2023/01/07 01:32:57;;;;;;;;;;;;;;;;;;6234008;22;19923;-87
2023/01/07 01:35:24;;;;;;;;;;;;;;;;;;6258325;22;20240;-87
2023/01/07 01:38:01;;;;;;;;;;;;;;;;;;6254929;22;19923;-87
2023/01/07 01:40:27;;;;;;;;;;;;;;;;;;6235121;22;19949;-87
2023/01/07 01:42:56;;;;;;;;;;;;;;;;;;6253711;22;19951;-87
2023/01/07 01:45:42;;;;;;;;;;;;;;;;;;;;;
2023/01/07 01:48:10;;;;;;;;;;;;;;;;;;6251900;22;19919;-88
2023/01/07 01:50:36;;;;;;;;;;;;;;;;;;6230089;22;19918;-88
2023/01/07 01:53:03;;;;;;;;;;;;;;;;;;6228690;22;20325;-88
2023/01/07 01:55:29;;;;;;;;;;;;;;;;;;6232775;22;19925;-88
2023/01/07 01:57:57;;;;;;;;;;;;;;;;;;6254243;22;19949;-87
2023/01/07 02:00:23;;;;;;;;;;;;;;;;;;6227125;22;19915;-87
2023/01/07 02:02:54;;;;;;;;;;;;;;;;;;6227443;22;19923;-88
2023/01/07 02:05:21;;;;;;;;;;;;;;;;;;6248469;22;20385;-88
2023/01/07 02:07:47;;;;;;;;;;;;;;;;;;6255136;22;19919;-88
2023/01/07 02:10:13;;;;;;;;;;;;;;;;;;6226903;22;19965;-88
2023/01/07 02:12:39;;;;;;;;;;;;;;;;;;6256787;22;19927;-88
2023/01/07 02:15:12;;;;;;;;;;;;;;;;;;6253751;22;20227;-88
2023/01/07 02:17:40;;;;;;;;;;;;;;;;;;6256162;22;20001;-88
2023/01/07 02:20:07;;;;;;;;;;;;;;;;;;6228342;22;20210;-88
2023/01/07 02:22:33;;;;;;;;;;;;;;;;;;6230315;22;20407;-88
2023/01/07 02:25:00;;;;;;;;;;;;;;;;;;6226894;22;19928;-88
2023/01/07 02:27:36;;;;;;;;;;;;;;;;;;6232269;22;19926;-88
2023/01/07 02:30:04;;;;;;;;;;;;;;;;;;6224471;22;19919;-86
2023/01/07 02:32:35;;;;;;;;;;;;;;;;;;6229047;22;20013;-87
2023/01/07 02:35:04;;;;;;;;;;;;;;;;;;6224770;22;19919;-87
2023/01/07 02:37:37;;;;;;;;;;;;;;;;;;6227157;22;19927;-88
2023/01/07 02:40:14;;;;;;;;;;;;;;;;;;6229509;22;19988;-88
2023/01/07 02:42:41;;;;;;;;;;;;;;;;;;6227325;22;19965;-87
2023/01/07 02:45:10;;;;;;;;;;;;;;;;;;6223971;22;20407;-87
2023/01/07 02:47:36;;;;;;;;;;;;;;;;;;6252473;22;19930;-87
2023/01/07 02:50:02;;;;;;;;;;;;;;;;;;6224938;22;20010;-87
2023/01/07 02:52:29;;;;;;;;;;;;;;;;;;6228196;22;20070;-87
2023/01/07 02:54:55;;;;;;;;;;;;;;;;;;6248441;22;19915;-87
2023/01/07 02:57:34;;;;;;;;;;;;;;;;;;6226929;23;20396;-87
2023/01/07 03:00:01;;;;;;;;;;;;;;;;;;6200560;23;19923;-87
2023/01/07 03:02:43;;;;;;;;;;;;;;;;;;6175168;23;19989;-87
2023/01/07 03:05:12;;;;;;;;;;;;;;;;;;6228044;23;20021;-87
2023/01/07 03:07:40;;;;;;;;;;;;;;;;;;6203531;23;20229;-87
2023/01/07 03:10:07;;;;;;;;;;;;;;;;;;6201533;23;19923;-88
2023/01/07 03:12:36;;;;;;;;;;;;;;;;;;6204546;23;19930;-87
2023/01/07 03:15:03;;;;;;;;;;;;;;;;;;6197179;23;19990;-88
2023/01/07 03:17:30;;;;;;;;;;;;;;;;;;6226127;23;19916;-87
2023/01/07 03:19:59;;;;;;;;;;;;;;;;;;6199516;23;20329;-87
2023/01/07 03:22:26;;;;;;;;;;;;;;;;;;6227413;22;19981;-88
2023/01/07 03:24:52;;;;;;;;;;;;;;;;;;6200942;23;20217;-87
2023/01/07 03:27:23;;;;;;;;;;;;;;;;;;6224589;23;20405;-88
2023/01/07 03:29:50;;;;;;;;;;;;;;;;;;6199795;23;19962;-87
2023/01/07 03:32:19;;;;;;;;;;;;;;;;;;6223667;23;19924;-88
2023/01/07 03:34:54;;;;;;;;;;;;;;;;;;6226941;22;19920;-88
2023/01/07 03:37:27;;;;;;;;;;;;;;;;;;6230586;22;19986;-89
2023/01/07 03:39:54;;;;;;;;;;;;;;;;;;6228983;22;19915;-88
2023/01/07 03:42:41;;;;;;;;;;;;;;;;;;6230566;22;20038;-88
2023/01/07 03:45:11;;;;;;;;;;;;;;;;;;6251547;22;20749;-88
2023/01/07 03:47:39;;;;;;;;;;;;;;;;;;6255941;22;19919;-87
2023/01/07 03:50:05;;;;;;;;;;;;;;;;;;6228607;22;19920;-87
2023/01/07 03:52:33;;;;;;;;;;;;;;;;;;6228979;22;19930;-87
2023/01/07 03:54:59;;;;;;;;;;;;;;;;;;6253805;22;19920;-87
2023/01/07 03:57:28;;;;;;;;;;;;;;;;;;6256024;22;19942;-87
2023/01/07 03:59:54;;;;;;;;;;;;;;;;;;6229243;22;19923;-88
2023/01/07 04:02:20;;;;;;;;;;;;;;;;;;6256627;22;19919;-87
2023/01/07 04:04:48;;;;;;;;;;;;;;;;;;6232481;22;19958;-87
2023/01/07 04:07:14;;;;;;;;;;;;;;;;;;6228298;22;19930;-86
2023/01/07 04:10:01;;;;;;;;;;;;;;;;;;6254907;22;19922;-87
2023/01/07 04:12:28;;;;;;;;;;;;;;;;;;6230536;22;19927;-87
2023/01/07 04:15:07;;;;;;;;;;;;;;;;;;6229631;22;20433;-87
2023/01/07 04:17:36;;;;;;;;;;;;;;;;;;6230150;22;20164;-87
2023/01/07 04:20:02;;;;;;;;;;;;;;;;;;6229004;22;20327;-87
2023/01/07 04:22:30;;;;;;;;;;;;;;;;;;6230526;22;20457;-87
2023/01/07 04:24:57;;;;;;;;;;;;;;;;;;6229936;22;19919;-88
2023/01/07 04:27:23;;;;;;;;;;;;;;;;;;6256404;22;20364;-85
2023/01/07 04:29:52;;;;;;;;;;;;;;;;;;6259339;22;19923;-87
2023/01/07 04:32:38;;;;;;;;;;;;;;;;;;6259547;22;20010;-86
2023/01/07 04:35:05;;;;;;;;;;;;;;;;;;6232472;22;19965;-87
2023/01/07 04:37:31;;;;;;;;;;;;;;;;;;6254359;22;19951;-86
2023/01/07 04:39:58;;;;;;;;;;;;;;;;;;6230209;22;19915;-86
2023/01/07 04:42:24;;;;;;;;;;;;;;;;;;6256235;22;20340;-87
2023/01/07 04:44:54;;;;;;;;;;;;;;;;;;6256153;22;19919;-86
2023/01/07 04:47:20;;;;;;;;;;;;;;;;;;6256979;22;20464;-86
2023/01/07 04:50:01;;;;;;;;;;;;;;;;;;6225257;23;19920;-87
2023/01/07 04:52:27;;;;;;;;;;;;;;;;;;6178037;23;19946;-87
2023/01/07 04:55:02;;;;;;;;;;;;;;;;;;6175000;23;19920;-87
2023/01/07 04:57:28;;;;;;;;;;;;;;;;;;6176280;23;19919;-87
2023/01/07 04:59:54;;;;;;;;;;;;;;;;;;6199491;23;19926;-87
2023/01/07 05:02:39;;;;;;;;;;;;;;;;;;6204717;23;19998;-88
2023/01/07 05:05:06;;;;;;;;;;;;;;;;;;6199762;23;19947;-88
2023/01/07 05:07:31;;;;;;;;;;;;;;;;;;6178093;23;19920;-87
2023/01/07 05:09:58;;;;;;;;;;;;;;;;;;6199482;23;20806;-87
2023/01/07 05:12:29;;;;;;;;;;;;;;;;;;6201980;23;19923;-87
2023/01/07 05:14:56;;;;;;;;;;;;;;;;;;6171548;23;19947;-88
2023/01/07 05:17:23;;;;;;;;;;;;;;;;;;6176143;23;19926;-88
2023/01/07 05:19:49;;;;;;;;;;;;;;;;;;6175261;23;19923;-87
2023/01/07 05:22:20;;;;;;;;;;;;;;;;;;6260667;22;20008;-86
2023/01/07 05:24:47;;;;;;;;;;;;;;;;;;6258933;22;19919;-87
2023/01/07 05:27:14;;;;;;;;;;;;;;;;;;6229683;22;19929;-87
2023/01/07 05:30:00;;;;;;;;;;;;;;;;;;6254962;22;19953;-87
2023/01/07 05:32:27;;;;;;;;;;;;;;;;;;6258629;22;20321;-87
2023/01/07 05:34:53;;;;;;;;;;;;;;;;;;6231916;22;20004;-87
2023/01/07 05:37:21;;;;;;;;;;;;;;;;;;6285840;22;20458;-86
2023/01/07 05:39:47;;;;;;;;;;;;;;;;;;6262983;22;19919;-87
2023/01/07 05:42:28;;;;;;;;;;;;;;;;;;6291811;22;19942;-87
2023/01/07 05:44:55;;;;;;;;;;;;;;;;;;6260445;22;19919;-88
2023/01/07 05:47:22;;;;;;;;;;;;;;;;;;6263586;22;19925;-87
2023/01/07 05:49:48;;;;;;;;;;;;;;;;;;6265429;22;19950;-87
2023/01/07 05:52:16;;;;;;;;;;;;;;;;;;6261684;22;19954;-88
2023/01/07 05:54:46;;;;;;;;;;;;;;;;;;6267600;22;19926;-87
2023/01/07 05:57:12;;;;;;;;;;;;;;;;;;6237032;22;20221;-87
2023/01/07 05:59:39;;;;;;;;;;;;;;;;;;6237533;22;19968;-88
2023/01/07 06:02:05;;;;;;;;;;;;;;;;;;6233592;22;20686;-87
2023/01/07 06:04:33;;;;;;;;;;;;;;;;;;6263366;22;19922;-88
2023/01/07 06:06:59;;;;;;;;;;;;;;;;;;6258568;22;19925;-87
2023/01/07 06:09:28;;;;;;;;;;;;;;;;;;6264781;22;19950;-87
2023/01/07 06:11:56;;;;;;;;;;;;;;;;;;6259641;22;20443;-88
2023/01/07 06:14:23;;;;;;;;;;;;;;;;;;6290054;22;19983;-87
2023/01/07 06:16:51;;;;;;;;;;;;;;;;;;6237267;22;20448;-87
2023/01/07 06:19:17;;;;;;;;;;;;;;;;;;6262158;22;19919;-87
2023/01/07 06:21:43;;;;;;;;;;;;;;;;;;6263062;22;20650;-87
2023/01/07 06:24:10;;;;;;;;;;;;;;;;;;6233427;22;20606;-87
2023/01/07 06:26:36;;;;;;;;;;;;;;;;;;6262398;22;19919;-87
2023/01/07 06:29:06;;;;;;;;;;;;;;;;;;6262339;22;20013;-87
2023/01/07 06:31:33;;;;;;;;;;;;;;;;;;6261498;22;20486;-88
2023/01/07 06:34:00;;;;;;;;;;;;;;;;;;6259862;22;19922;-87
2023/01/07 06:36:26;;;;;;;;;;;;;;;;;;6288425;22;19923;-87
2023/01/07 06:38:56;;;;;;;;;;;;;;;;;;6239769;22;20327;-86
2023/01/07 06:41:22;;;;;;;;;;;;;;;;;;6241044;22;19919;-87
2023/01/07 06:43:48;;;;;;;;;;;;;;;;;;6290484;22;19926;-87
2023/01/07 06:46:21;;;;;;;;;;;;;;;;;;6260880;22;20378;-86
2023/01/07 06:48:48;;;;;;;;;;;;;;;;;;6290399;22;19919;-86
2023/01/07 06:51:16;;;;;;;;;;;;;;;;;;6262987;22;19923;-88
2023/01/07 06:53:42;;;;;;;;;;;;;;;;;;6233628;22;19941;-87
2023/01/07 06:56:18;;;;;;;;;;;;;;;;;;6287398;22;19926;-87
2023/01/07 06:58:44;;;;;;;;;;;;;;;;;;6238340;22;19946;-87
2023/01/07 07:01:11;;;;;;;;;;;;;;;;;;6233556;22;19969;-87
2023/01/07 07:03:38;;;;;;;;;;;;;;;;;;6287533;22;19957;-88
2023/01/07 07:06:06;;;;;;;;;;;;;;;;;;6287029;22;19922;-87
2023/01/07 07:08:32;;;;;;;;;;;;;;;;;;6267281;22;20736;-87
2023/01/07 07:11:07;;;;;;;;;;;;;;;;;;6264004;22;19919;-87
2023/01/07 07:13:34;;;;;;;;;;;;;;;;;;6236283;22;20385;-88
2023/01/07 07:16:02;;;;;;;;;;;;;;;;;;6259223;22;19919;-88
2023/01/07 07:18:29;;;;;;;;;;;;;;;;;;6287630;22;19957;-87
2023/01/07 07:21:10;;;;;;;;;;;;;;;;;;6289870;22;19918;-87
2023/01/07 07:23:36;;;;;;;;;;;;;;;;;;6264255;22;19973;-87
2023/01/07 07:26:03;;;;;;;;;;;;;;;;;;6260414;22;20677;-87
2023/01/07 07:28:30;;;;;;;;;;;;;;;;;;6237530;22;19918;-87
2023/01/07 07:30:56;;;;;;;;;;;;;;;;;;6234385;22;19919;-87
2023/01/07 07:33:22;;;;;;;;;;;;;;;;;;6261213;22;19923;-88
2023/01/07 07:35:48;;;;;;;;;;;;;;;;;;6263048;22;20680;-88
2023/01/07 07:38:16;;;;;;;;;;;;;;;;;;6228805;22;19923;-87
2023/01/07 07:40:44;;;;;;;;;;;;;;;;;;6259916;22;20233;-87
2023/01/07 07:43:10;;;;;;;;;;;;;;;;;;6256354;22;19923;-87
2023/01/07 07:45:36;;;;;;;;;;;;;;;;;;6257764;22;20063;-87
2023/01/07 07:48:03;;;;;;;;;;;;;;;;;;6253448;22;19919;-88
2023/01/07 07:50:31;;;;;;;;;;;;;;;;;;6256646;22;19923;-87
2023/01/07 07:52:58;;;;;;;;;;;;;;;;;;6253606;22;19923;-88
2023/01/07 07:55:24;;;;;;;;;;;;;;;;;;6258370;22;19919;-87
2023/01/07 07:57:50;;;;;;;;;;;;;;;;;;6230073;22;19929;-87
2023/01/07 08:00:17;;;;;;;;;;;;;;;;;;6254676;22;19972;-87
2023/01/07 08:02:43;;;;;;;;;;;;;;;;;;6229825;22;20248;-87
2023/01/07 08:05:11;;;;;;;;;;;;;;;;;;6253415;22;19922;-87
2023/01/07 08:07:44;;;;;;;;;;;;;;;;;;6254691;22;19919;-87
2023/01/07 08:10:10;;;;;;;;;;;;;;;;;;6229060;22;20252;-87
2023/01/07 08:12:37;;;;;;;;;;;;;;;;;;6257176;22;19923;-88
2023/01/07 08:15:07;;;;;;;;;;;;;;;;;;6255857;22;19915;-88
2023/01/07 08:17:37;;;;;;;;;;;;;;;;;;6228715;22;20267;-87
2023/01/07 08:20:05;;;;;;;;;;;;;;;;;;6253145;22;19923;-88
2023/01/07 08:22:32;;;;;;;;;;;;;;;;;;6228854;22;19989;-88
2023/01/07 08:24:59;;;;;;;;;;;;;;;;;;6253192;22;20267;-87
2023/01/07 08:27:35;;;;;;;;;;;;;;;;;;6256963;22;19926;-88
2023/01/07 08:30:02;;;;;;;;;;;;;;;;;;6250567;22;19954;-88
2023/01/07 08:32:29;;;;;;;;;;;;;;;;;;6219099;22;19919;-87
2023/01/07 08:34:57;;;;;;;;;;;;;;;;;;6252339;22;19990;-87
2023/01/07 08:37:24;;;;;;;;;;;;;;;;;;6252700;22;19924;-87
2023/01/07 08:39:51;;;;;;;;;;;;;;;;;;6256366;22;19956;-87
2023/01/07 08:42:17;;;;;;;;;;;;;;;;;;6252770;22;19919;-87
2023/01/07 08:44:43;;;;;;;;;;;;;;;;;;6231746;22;19919;-87
2023/01/07 08:47:11;;;;;;;;;;;;;;;;;;6254830;22;19999;-88
2023/01/07 08:49:39;;;;;;;;;;;;;;;;;;6231010;22;19915;-87
2023/01/07 08:52:06;;;;;;;;;;;;;;;;;;6254511;22;19919;-87
2023/01/07 08:54:33;;;;;;;;;;;;;;;;;;6232172;22;19977;-87
2023/01/07 08:57:00;;;;;;;;;;;;;;;;;;6253905;22;19923;-87
2023/01/07 08:59:28;;;;;;;;;;;;;;;;;;6227380;22;19927;-87
2023/01/07 09:01:55;;;;;;;;;;;;;;;;;;6250773;22;19957;-87
2023/01/07 09:04:23;;;;;;;;;;;;;;;;;;6231962;22;19950;-87
2023/01/07 09:06:49;;;;;;;;;;;;;;;;;;6258460;22;20339;-86
2023/01/07 09:09:17;;;;;;;;;;;;;;;;;;6255586;22;19923;-86
2023/01/07 09:11:44;;;;;;;;;;;;;;;;;;6259486;22;19934;-86
2023/01/07 09:14:10;;;;;;;;;;;;;;;;;;6251592;22;20424;-86
2023/01/07 09:16:36;;;;;;;;;;;;;;;;;;6254779;22;19926;-86
2023/01/07 09:19:07;;;;;;;;;;;;;;;;;;6254658;22;19919;-86
2023/01/07 09:21:33;;;;;;;;;;;;;;;;;;6229616;22;19922;-86
2023/01/07 09:24:07;;;;;;;;;;;;;;;;;;6254919;22;19942;-86
2023/01/07 09:26:33;;;;;;;;;;;;;;;;;;6256700;22;19919;-86
2023/01/07 09:29:00;;;;;;;;;;;;;;;;;;6226672;22;20399;-87
2023/01/07 09:31:27;;;;;;;;;;;;;;;;;;6231042;22;20377;-87
2023/01/07 09:33:54;;;;;;;;;;;;;;;;;;6218456;22;19923;-88
2023/01/07 09:36:21;;;;;;;;;;;;;;;;;;6228750;22;20446;-88
2023/01/07 09:38:48;;;;;;;;;;;;;;;;;;6230084;22;19918;-87
2023/01/07 09:41:16;;;;;;;;;;;;;;;;;;6254309;22;19919;-87
2023/01/07 09:43:52;;;;;;;;;;;;;;;;;;6256379;22;19919;-87
2023/01/07 09:46:34;;;;;;;;;;;;;;;;;;6257191;22;19919;-88
2023/01/07 09:49:01;;;;;;;;;;;;;;;;;;6230434;22;20303;-87
2023/01/07 09:51:27;;;;;;;;;;;;;;;;;;6260132;22;19988;-87
2023/01/07 09:53:55;;;;;;;;;;;;;;;;;;6253369;22;19927;-87
2023/01/07 09:56:29;;;;;;;;;;;;;;;;;;6258318;22;19924;-87
2023/01/07 09:59:14;;;;;;;;;;;;;;;;;;6251740;22;20891;-86
2023/01/07 10:01:41;;;;;;;;;;;;;;;;;;6230768;22;19923;-87
2023/01/07 10:04:08;;;;;;;;;;;;;;;;;;6229734;22;20256;-87
2023/01/07 10:06:34;;;;;;;;;;;;;;;;;;6259031;22;20260;-87
2023/01/07 10:09:08;;;;;;;;;;;;;;;;;;6253812;22;19927;-87
2023/01/07 10:11:33;;;;;;;;;;;;;;;;;;6231748;22;19919;-87
2023/01/07 10:14:02;;;;;;;;;;;;;;;;;;6237389;22;19972;-87
2023/01/07 10:16:38;;;;;;;;;;;;;;;;;;6258970;22;19926;-88
2023/01/07 10:19:08;;;;;;;;;;;;;;;;;;6254818;22;20426;-87
2023/01/07 10:21:34;;;;;;;;;;;;;;;;;;6255466;22;19919;-87
2023/01/07 10:24:04;;;;;;;;;;;;;;;;;;6254483;22;19926;-88
2023/01/07 10:29:23;;;;;;;;;;;;;;;;;;6240047;22;20244;-87
2023/01/07 10:31:50;;;;;;;;;;;;;;;;;;6259327;22;19937;-87
2023/01/07 10:34:20;;;;;;;;;;;;;;;;;;6255303;22;20401;-87
2023/01/07 10:36:47;;;;;;;;;;;;;;;;;;6196457;23;19924;-87
2023/01/07 10:39:15;;;;;;;;;;;;;;;;;;6168134;23;19920;-87
2023/01/07 10:41:41;;;;;;;;;;;;;;;;;;6168049;23;19989;-87
2023/01/07 10:44:08;;;;;;;;;;;;;;;;;;6194660;23;20347;-86
2023/01/07 10:46:39;;;;;;;;;;;;;;;;;;6194998;23;19920;-86
2023/01/07 10:49:06;;;;;;;;;;;;;;;;;;6196992;23;19955;-86
2023/01/07 10:51:33;;;;;;;;;;;;;;;;;;6174341;23;19990;-87
2023/01/07 10:54:00;;;;;;;;;;;;;;;;;;6169561;23;20395;-86
2023/01/07 10:56:44;;;;;;;;;;;;;;;;;;6204102;23;19916;-86
2023/01/07 10:59:10;;;;;;;;;;;;;;;;;;6102939;23;20811;-87
2023/01/07 11:01:45;;;;;;;;;;;;;;;;;;6075380;23;19921;-87
2023/01/07 11:04:21;;;;;;;;;;;;;;;;;;6051787;23;19928;-87
2023/01/07 11:06:51;;;;;;;;;;;;;;;;;;6058037;23;20288;-87
2023/01/07 11:09:18;;;;;;;;;;;;;;;;;;6112288;23;19950;-86
2023/01/07 11:11:45;;;;;;;;;;;;;;;;;;6113915;23;19920;-86
2023/01/07 11:14:12;;;;;;;;;;;;;;;;;;6163372;23;19921;-86
2023/01/07 11:16:42;;;;;;;;;;;;;;;;;;6164349;23;20056;-86
2023/01/07 11:19:10;;;;;;;;;;;;;;;;;;6131468;23;19927;-86
2023/01/07 11:21:36;;;;;;;;;;;;;;;;;;6167171;23;19963;-86
2023/01/07 11:24:03;;;;;;;;;;;;;;;;;;6160633;23;19927;-86
2023/01/07 11:26:30;;;;;;;;;;;;;;;;;;6113710;23;20284;-86
2023/01/07 11:28:58;;;;;;;;;;;;;;;;;;6137435;23;19991;-86
2023/01/07 11:31:38;;;;;;;;;;;;;;;;;;6171318;22;19946;-86
2023/01/07 11:34:05;;;;;;;;;;;;;;;;;;6229253;22;19923;-86
2023/01/07 11:36:32;;;;;;;;;;;;;;;;;;6231677;22;20018;-86
2023/01/07 11:39:00;;;;;;;;;;;;;;;;;;6225984;22;19977;-87
2023/01/07 11:41:27;;;;;;;;;;;;;;;;;;6254256;22;20267;-87
2023/01/07 11:44:03;;;;;;;;;;;;;;;;;;6258171;22;20237;-87
2023/01/07 11:46:46;;;;;;;;;;;;;;;;;;6258878;22;19972;-86
2023/01/07 11:49:13;;;;;;;;;;;;;;;;;;6257693;22;19926;-86
2023/01/07 11:51:39;;;;;;;;;;;;;;;;;;6259374;22;19923;-86
2023/01/07 11:54:06;;;;;;;;;;;;;;;;;;6231011;22;19972;-86
2023/01/07 11:56:32;;;;;;;;;;;;;;;;;;6234887;22;19919;-86
2023/01/07 11:59:07;;;;;;;;;;;;;;;;;;6254913;22;19949;-86
2023/01/07 12:01:33;;;;;;;;;;;;;;;;;;6228131;22;19927;-86
2023/01/07 12:04:00;;;;;;;;;;;;;;;;;;6230240;22;19934;-86
2023/01/07 12:06:27;;;;;;;;;;;;;;;;;;6257529;22;19919;-85
2023/01/07 12:08:56;;;;;;;;;;;;;;;;;;6232606;22;19916;-86
2023/01/07 12:11:22;;;;;;;;;;;;;;;;;;6256706;22;20344;-86
2023/01/07 12:13:51;;;;;;;;;;;;;;;;;;6237289;22;19970;-86
2023/01/07 12:16:32;;;;;;;;;;;;;;;;;;6254661;22;19930;-86
2023/01/07 12:19:04;;;;;;;;;;;;;;;;;;6254890;22;19984;-87
2023/01/07 12:21:39;;;;;;;;;;;;;;;;;;6259596;22;19926;-87
2023/01/07 12:24:06;;;;;;;;;;;;;;;;;;6256101;22;19926;-86
2023/01/07 12:26:41;;;;;;;;;;;;;;;;;;6284088;22;19922;-87
2023/01/07 12:29:07;;;;;;;;;;;;;;;;;;6270703;22;20132;-86
2023/01/07 12:31:50;;;;;;;;;;;;;;;;;;6259088;22;20144;-86
2023/01/07 12:34:31;;;;;;;;;;;;;;;;;;6257609;22;19977;-86
2023/01/07 12:37:00;;;;;;;;;;;;;;;;;;6229723;22;19923;-86
2023/01/07 12:39:27;;;;;;;;;;;;;;;;;;6253786;22;19950;-86
2023/01/07 12:41:53;;;;;;;;;;;;;;;;;;6255635;22;19945;-87
2023/01/07 12:44:25;;;;;;;;;;;;;;;;;;6232555;22;19965;-86
2023/01/07 12:46:58;;;;;;;;;;;;;;;;;;6256975;22;19973;-87
2023/01/07 12:49:34;;;;;;;;;;;;;;;;;;6257499;22;19919;-87
2023/01/07 12:52:00;;;;;;;;;;;;;;;;;;6229471;22;20777;-87
2023/01/07 12:54:30;;;;;;;;;;;;;;;;;;6256493;22;20018;-86
2023/01/07 12:56:56;;;;;;;;;;;;;;;;;;6228354;22;19926;-87
2023/01/07 12:59:22;;;;;;;;;;;;;;;;;;6255824;22;19926;-86
2023/01/07 13:01:49;;;;;;;;;;;;;;;;;;6230607;22;19916;-86
2023/01/07 13:04:15;;;;;;;;;;;;;;;;;;6228294;22;19996;-87
2023/01/07 13:06:43;;;;;;;;;;;;;;;;;;6230341;22;19930;-86
2023/01/07 13:09:09;;;;;;;;;;;;;;;;;;6226068;22;20440;-86
2023/01/07 13:14:20;;;;;;;;;;;;;;;;;;6255943;22;19927;-86
2023/01/07 13:16:54;;;;;;;;;;;;;;;;;;6255579;22;19959;-86
2023/01/07 13:19:34;;;;;;;;;;;;;;;;;;6255452;22;20340;-87
2023/01/07 13:22:00;;;;;;;;;;;;;;;;;;6256685;22;19927;-87
2023/01/07 13:24:28;;;;;;;;;;;;;;;;;;6239199;22;19994;-87
2023/01/07 13:26:55;;;;;;;;;;;;;;;;;;6225991;22;19926;-87
2023/01/07 13:29:21;;;;;;;;;;;;;;;;;;6229605;22;20625;-86
2023/01/07 13:31:47;;;;;;;;;;;;;;;;;;6251099;22;19919;-86
2023/01/07 13:34:15;;;;;;;;;;;;;;;;;;6251100;22;19965;-87
2023/01/07 13:36:48;;;;;;;;;;;;;;;;;;6263590;22;20276;-87
2023/01/07 13:39:18;;;;;;;;;;;;;;;;;;6255270;22;19919;-87
2023/01/07 13:41:58;;;;;;;;;;;;;;;;;;6250409;22;19926;-87
2023/01/07 13:44:27;;;;;;;;;;;;;;;;;;6228415;22;19926;-88
2023/01/07 13:46:53;;;;;;;;;;;;;;;;;;6223211;22;20251;-87
2023/01/07 13:49:24;;;;;;;;;;;;;;;;;;6230811;22;19919;-86
2023/01/07 13:51:51;;;;;;;;;;;;;;;;;;6229689;22;19990;-87
2023/01/07 13:54:28;;;;;;;;;;;;;;;;;;6284460;22;20327;-87
2023/01/07 13:56:54;;;;;;;;;;;;;;;;;;6245641;22;20327;-87
2023/01/07 13:59:23;;;;;;;;;;;;;;;;;;6233679;22;19919;-87
2023/01/07 14:01:50;;;;;;;;;;;;;;;;;;6229664;22;20025;-86
2023/01/07 14:04:31;;;;;;;;;;;;;;;;;;6164177;23;19916;-86
2023/01/07 14:07:00;;;;;;;;;;;;;;;;;;6158091;23;19919;-86
2023/01/07 14:09:27;;;;;;;;;;;;;;;;;;6160943;23;19926;-86
2023/01/07 14:11:54;;;;;;;;;;;;;;;;;;6185254;23;19982;-87
2023/01/07 14:14:20;;;;;;;;;;;;;;;;;;6187747;23;20073;-86
2023/01/07 14:16:47;;;;;;;;;;;;;;;;;;6187130;23;20495;-87
2023/01/07 14:19:20;;;;;;;;;;;;;;;;;;6186858;23;19926;-86
2023/01/07 14:21:46;;;;;;;;;;;;;;;;;;6160789;23;19969;-86
2023/01/07 14:24:15;;;;;;;;;;;;;;;;;;6183742;23;20002;-86
2023/01/07 14:26:45;;;;;;;;;;;;;;;;;;6187180;23;20011;-86
2023/01/07 14:29:14;;;;;;;;;;;;;;;;;;6185330;23;20539;-86
2023/01/07 14:31:42;;;;;;;;;;;;;;;;;;6160559;23;19927;-86
2023/01/07 14:34:09;;;;;;;;;;;;;;;;;;6163332;23;19931;-86
2023/01/07 14:36:35;;;;;;;;;;;;;;;;;;6167774;23;19920;-87
2023/01/07 14:39:03;;;;;;;;;;;;;;;;;;6165356;23;19926;-86
2023/01/07 14:41:31;;;;;;;;;;;;;;;;;;6214581;22;19923;-87
2023/01/07 14:44:11;;;;;;;;;;;;;;;;;;6286613;22;19922;-86
2023/01/07 14:46:39;;;;;;;;;;;;;;;;;;6232632;22;19919;-86
2023/01/07 14:49:05;;;;;;;;;;;;;;;;;;6233771;22;19963;-86
2023/01/07 14:51:34;;;;;;;;;;;;;;;;;;6255599;22;19923;-86
2023/01/07 14:54:06;;;;;;;;;;;;;;;;;;6231860;22;19927;-86
2023/01/07 14:56:33;;;;;;;;;;;;;;;;;;6210163;22;19923;-86
2023/01/07 14:59:08;;;;;;;;;;;;;;;;;;6226463;22;19961;-86
2023/01/07 15:01:36;;;;;;;;;;;;;;;;;;6228496;22;19981;-88
2023/01/07 15:04:04;;;;;;;;;;;;;;;;;;6200907;22;20281;-86
2023/01/07 15:06:30;;;;;;;;;;;;;;;;;;6204794;22;19923;-85
2023/01/07 15:17:29;;;;;;;;;;;;;;;;;;6225523;22;19990;-84
2023/01/07 15:19:57;;;;;;;;;;;;;;;;;;6200197;22;19919;-84
2023/01/07 15:22:23;;;;;;;;;;;;;;;;;;6226737;22;19919;-84
2023/01/07 15:24:50;;;;;;;;;;;;;;;;;;6252068;22;19926;-85
2023/01/07 15:27:17;;;;;;;;;;;;;;;;;;6225105;22;19930;-84
2023/01/07 15:29:44;;;;;;;;;;;;;;;;;;6248290;22;19920;-85
2023/01/07 15:32:10;;;;;;;;;;;;;;;;;;6198575;22;20017;-85
2023/01/07 15:34:37;;;;;;;;;;;;;;;;;;6227470;22;19927;-84
2023/01/07 15:37:05;;;;;;;;;;;;;;;;;;6252674;22;19923;-85
2023/01/07 15:39:31;;;;;;;;;;;;;;;;;;6225800;22;19926;-85
2023/01/07 15:41:57;;;;;;;;;;;;;;;;;;6225314;22;19950;-85
2023/01/07 15:44:28;;;;;;;;;;;;;;;;;;6252706;22;19919;-84
2023/01/07 15:46:54;;;;;;;;;;;;;;;;;;6203046;22;20263;-84
2023/01/07 15:49:21;;;;;;;;;;;;;;;;;;6200098;22;20435;-84
2023/01/07 15:51:48;;;;;;;;;;;;;;;;;;6227140;22;19919;-85
2023/01/07 15:54:14;;;;;;;;;;;;;;;;;;6217706;23;20324;-84
2023/01/07 15:56:40;;;;;;;;;;;;;;;;;;6226238;23;20340;-85
2023/01/07 16:12:03;;;;;;;;;;;;;;;;;;6289010;22;20633;-84
2023/01/07 16:14:29;;;;;;;;;;;;;;;;;;6239720;22;19964;-86
2023/01/07 16:16:55;;;;;;;;;;;;;;;;;;6259881;22;19941;-86
2023/01/07 16:19:21;;;;;;;;;;;;;;;;;;6242142;22;19919;-87
2023/01/07 16:21:47;;;;;;;;;;;;;;;;;;6240462;22;19990;-86
2023/01/07 16:24:13;;;;;;;;;;;;;;;;;;6239519;22;20941;-86
2023/01/07 16:26:39;;;;;;;;;;;;;;;;;;6269969;22;19930;-86
2023/01/07 16:29:05;;;;;;;;;;;;;;;;;;6241953;22;20438;-86
2023/01/07 16:31:31;;;;;;;;;;;;;;;;;;6297804;22;19919;-85
2023/01/07 16:33:57;;;;;;;;;;;;;;;;;;6239737;22;19926;-86
2023/01/07 16:36:23;;;;;;;;;;;;;;;;;;6243348;22;20763;-85
2023/01/07 16:38:49;;;;;;;;;;;;;;;;;;6243199;22;19915;-85
2023/01/07 16:41:15;;;;;;;;;;;;;;;;;;6239848;22;20240;-86
2023/01/07 16:43:42;;;;;;;;;;;;;;;;;;6262223;22;19923;-86
2023/01/07 16:46:08;;;;;;;;;;;;;;;;;;6262968;22;20354;-86
2023/01/07 16:48:34;;;;;;;;;;;;;;;;;;6291530;22;19919;-86
2023/01/07 16:51:00;;;;;;;;;;;;;;;;;;6237249;22;20368;-86
2023/01/07 16:53:26;;;;;;;;;;;;;;;;;;6241365;22;19948;-87
2023/01/07 16:55:52;;;;;;;;;;;;;;;;;;6266893;22;19962;-86
2023/01/07 16:58:18;;;;;;;;;;;;;;;;;;6266570;22;19998;-86
2023/01/07 17:00:44;;;;;;;;;;;;;;;;;;6268183;22;20362;-86
2023/01/07 17:03:10;;;;;;;;;;;;;;;;;;6260762;22;19922;-86
2023/01/07 17:05:36;;;;;;;;;;;;;;;;;;6291302;22;19965;-86
2023/01/07 17:08:01;;;;;;;;;;;;;;;;;;6259057;22;19918;-85
2023/01/07 17:10:27;;;;;;;;;;;;;;;;;;6240021;22;19925;-85
2023/01/07 17:12:53;;;;;;;;;;;;;;;;;;6239940;22;20428;-85
2023/01/07 17:15:19;;;;;;;;;;;;;;;;;;6241292;22;19919;-85
2023/01/07 17:17:45;;;;;;;;;;;;;;;;;;6237949;22;19919;-85
2023/01/07 17:20:11;;;;;;;;;;;;;;;;;;6290063;22;19926;-86
2023/01/07 17:22:37;;;;;;;;;;;;;;;;;;6264904;22;19972;-85
2023/01/07 17:25:03;;;;;;;;;;;;;;;;;;6264118;22;19937;-86
2023/01/07 17:27:29;;;;;;;;;;;;;;;;;;6265339;22;19994;-86
2023/01/07 17:29:55;;;;;;;;;;;;;;;;;;6265311;22;19957;-85
2023/01/07 17:32:23;;;;;;;;;;;;;;;;;;6240332;22;20480;-85
2023/01/07 17:34:49;;;;;;;;;;;;;;;;;;6293935;22;19938;-85
2023/01/07 17:37:15;;;;;;;;;;;;;;;;;;6262981;22;19919;-85
2023/01/07 17:39:41;;;;;;;;;;;;;;;;;;6265675;22;19969;-86
2023/01/07 17:44:51;;;;;;;;;;;;;;;;;;6263612;22;19925;-85
2023/01/07 17:47:21;;;;;;;;;;;;;;;;;;6235238;22;19934;-86
2023/01/07 17:49:47;;;;;;;;;;;;;;;;;;6237213;22;20247;-85
2023/01/07 17:52:12;;;;;;;;;;;;;;;;;;6235419;22;19918;-85
2023/01/07 17:54:38;;;;;;;;;;;;;;;;;;6262654;22;20321;-85
2023/01/07 17:57:04;;;;;;;;;;;;;;;;;;6258680;22;19925;-86
2023/01/07 17:59:31;;;;;;;;;;;;;;;;;;6261873;22;19923;-85
2023/01/07 18:01:59;;;;;;;;;;;;;;;;;;6288743;22;20314;-86